createdAt,value
2017-12-30T00:01:06.901Z,0.40
2017-12-30T00:03:34.631Z,0.39
2017-12-30T00:06:02.393Z,0.44
2017-12-30T00:08:30.167Z,0.43
2017-12-30T00:10:57.930Z,0.41
2017-12-30T00:13:25.651Z,0.42
2017-12-30T00:15:53.358Z,0.51
2017-12-30T00:18:21.083Z,0.61
2017-12-30T00:20:48.850Z,0.76
2017-12-30T00:23:16.524Z,0.85
2017-12-30T00:25:44.289Z,0.88
2017-12-30T00:28:12.870Z,0.92
2017-12-30T00:30:40.675Z,0.94
2017-12-30T00:33:08.393Z,0.98
2017-12-30T00:35:36.157Z,1.00
2017-12-30T00:38:03.873Z,1.03
2017-12-30T00:40:31.592Z,1.06
2017-12-30T00:42:59.310Z,1.10
2017-12-30T00:45:27.038Z,1.14
2017-12-30T00:47:54.724Z,1.19
2017-12-30T00:50:22.436Z,1.23
2017-12-30T00:52:50.053Z,1.26
2017-12-30T00:55:17.794Z,1.28
2017-12-30T00:57:45.599Z,1.30
2017-12-30T01:00:13.415Z,1.33
2017-12-30T01:02:41.091Z,1.37
2017-12-30T01:05:08.745Z,1.38
2017-12-30T01:07:36.451Z,1.39
2017-12-30T01:10:04.080Z,1.39
2017-12-30T01:12:31.793Z,1.41
2017-12-30T01:14:59.464Z,1.41
2017-12-30T01:17:27.179Z,1.44
2017-12-30T01:19:54.860Z,1.44
2017-12-30T01:22:22.571Z,1.45
2017-12-30T01:24:50.235Z,1.45
2017-12-30T01:27:17.964Z,1.45
2017-12-30T01:29:45.644Z,1.43
2017-12-30T01:32:13.376Z,1.44
2017-12-30T01:34:41.055Z,1.47
2017-12-30T01:37:08.781Z,1.48
2017-12-30T01:39:36.448Z,1.47
2017-12-30T01:42:04.174Z,1.47
2017-12-30T01:44:31.852Z,1.49
2017-12-30T01:46:59.698Z,1.49
2017-12-30T01:49:27.412Z,1.49
2017-12-30T01:51:55.133Z,1.48
2017-12-30T01:54:22.833Z,1.48
2017-12-30T01:56:50.567Z,1.45
2017-12-30T01:59:18.243Z,1.48
2017-12-30T02:01:45.972Z,1.49
2017-12-30T02:04:13.650Z,1.50
2017-12-30T02:06:41.429Z,1.51
2017-12-30T02:09:09.107Z,1.51
2017-12-30T02:11:36.828Z,1.53
2017-12-30T02:14:04.490Z,1.53
2017-12-30T02:16:32.216Z,1.54
2017-12-30T02:18:59.895Z,1.55
2017-12-30T02:21:27.625Z,1.61
2017-12-30T02:23:55.326Z,1.63
2017-12-30T02:26:23.055Z,1.65
2017-12-30T02:28:50.742Z,1.64
2017-12-30T02:31:18.496Z,1.66
2017-12-30T02:33:46.233Z,1.71
2017-12-30T02:36:13.920Z,1.76
2017-12-30T02:38:41.638Z,1.80
2017-12-30T02:41:09.316Z,1.80
2017-12-30T02:43:37.035Z,1.82
2017-12-30T02:46:04.710Z,1.85
2017-12-30T02:48:32.418Z,1.86
2017-12-30T02:51:00.090Z,1.86
2017-12-30T02:53:27.815Z,1.88
2017-12-30T02:55:55.656Z,1.89
2017-12-30T02:58:23.372Z,1.91
2017-12-30T03:00:51.052Z,1.91
2017-12-30T03:03:18.805Z,1.92
2017-12-30T03:05:46.482Z,1.93
2017-12-30T03:08:14.268Z,1.92
2017-12-30T03:10:41.949Z,1.94
2017-12-30T03:13:09.663Z,1.96
2017-12-30T03:15:37.338Z,1.95
2017-12-30T03:18:05.064Z,1.97
2017-12-30T03:20:32.735Z,2.03
2017-12-30T03:23:00.449Z,2.07
2017-12-30T03:25:28.122Z,2.08
2017-12-30T03:27:55.834Z,2.08
2017-12-30T03:30:23.540Z,2.10
2017-12-30T03:32:51.255Z,2.08
2017-12-30T03:35:18.929Z,2.11
2017-12-30T03:37:46.658Z,2.14
2017-12-30T03:40:14.327Z,2.16
2017-12-30T03:42:42.051Z,2.17
2017-12-30T03:45:09.725Z,2.18
2017-12-30T03:47:37.460Z,2.20
2017-12-30T03:50:05.144Z,2.23
2017-12-30T03:52:32.869Z,2.25
2017-12-30T03:55:00.540Z,2.25
2017-12-30T03:57:28.259Z,2.28
2017-12-30T03:59:55.929Z,2.25
2017-12-30T04:02:23.651Z,2.24
2017-12-30T04:04:51.259Z,2.21
2017-12-30T04:07:19.035Z,2.18
2017-12-30T04:09:46.761Z,2.15
2017-12-30T04:12:14.440Z,2.20
2017-12-30T04:14:42.151Z,2.25
2017-12-30T04:17:09.838Z,2.26
2017-12-30T04:19:37.560Z,2.24
2017-12-30T04:22:05.235Z,2.22
2017-12-30T04:24:32.946Z,2.17
2017-12-30T04:27:00.633Z,2.13
2017-12-30T04:29:28.355Z,2.09
2017-12-30T04:31:56.036Z,2.08
2017-12-30T04:34:23.757Z,2.09
2017-12-30T04:36:51.435Z,2.09
2017-12-30T04:39:19.158Z,2.09
2017-12-30T04:41:46.841Z,2.12
2017-12-30T04:44:14.561Z,2.14
2017-12-30T04:46:42.222Z,2.15
2017-12-30T04:49:09.944Z,2.15
2017-12-30T04:51:37.635Z,2.16
2017-12-30T04:54:05.355Z,2.18
2017-12-30T04:56:33.041Z,2.21
2017-12-30T04:59:00.886Z,2.24
2017-12-30T05:01:28.563Z,2.28
2017-12-30T05:03:56.295Z,2.31
2017-12-30T05:06:24.024Z,2.33
2017-12-30T05:08:51.743Z,2.33
2017-12-30T05:11:19.415Z,2.32
2017-12-30T05:13:47.140Z,2.37
2017-12-30T05:16:14.807Z,2.40
2017-12-30T05:18:42.529Z,2.41
2017-12-30T05:21:10.207Z,2.44
2017-12-30T05:23:37.920Z,2.43
2017-12-30T05:26:05.601Z,2.47
2017-12-30T05:28:33.317Z,2.52
2017-12-30T05:31:01.009Z,2.54
2017-12-30T05:33:28.723Z,2.56
2017-12-30T05:35:56.410Z,2.59
2017-12-30T05:38:24.118Z,2.62
2017-12-30T05:40:51.807Z,2.64
2017-12-30T05:43:19.523Z,2.64
2017-12-30T05:45:47.210Z,2.68
2017-12-30T05:48:14.934Z,2.71
2017-12-30T05:50:42.616Z,2.72
2017-12-30T05:53:10.287Z,2.73
2017-12-30T05:55:38.011Z,2.73
2017-12-30T05:58:05.696Z,2.72
2017-12-30T06:00:33.419Z,2.71
2017-12-30T06:03:01.095Z,2.72
2017-12-30T06:05:28.810Z,2.73
2017-12-30T06:07:56.539Z,2.76
2017-12-30T06:10:24.283Z,2.82
2017-12-30T06:12:51.986Z,2.85
2017-12-30T06:15:19.710Z,2.85
2017-12-30T06:17:47.391Z,2.86
2017-12-30T06:20:15.102Z,2.86
2017-12-30T06:22:42.785Z,2.87
2017-12-30T06:25:10.513Z,2.89
2017-12-30T06:27:38.199Z,2.89
2017-12-30T06:30:05.911Z,2.87
2017-12-30T06:32:34.479Z,2.88
2017-12-30T06:35:02.207Z,2.88
2017-12-30T06:37:29.879Z,2.88
2017-12-30T06:39:57.598Z,2.89
2017-12-30T06:42:25.273Z,2.90
2017-12-30T06:44:52.996Z,2.90
2017-12-30T06:47:20.682Z,2.93
2017-12-30T06:49:48.424Z,2.92
2017-12-30T06:52:16.102Z,2.92
2017-12-30T06:54:43.857Z,2.94
2017-12-30T06:57:11.541Z,2.95
2017-12-30T06:59:39.274Z,2.91
2017-12-30T07:02:06.979Z,2.87
2017-12-30T07:04:34.732Z,2.84
2017-12-30T07:07:02.447Z,2.86
2017-12-30T07:09:30.117Z,2.89
2017-12-30T07:11:57.804Z,2.90
2017-12-30T07:14:25.519Z,2.95
2017-12-30T07:16:53.220Z,2.94
2017-12-30T07:19:20.890Z,2.96
2017-12-30T07:21:48.591Z,3.00
2017-12-30T07:24:16.311Z,3.01
2017-12-30T07:26:43.996Z,2.98
2017-12-30T07:29:11.731Z,3.00
2017-12-30T07:31:39.408Z,3.05
2017-12-30T07:34:07.087Z,3.10
2017-12-30T07:36:34.813Z,3.12
2017-12-30T07:39:02.535Z,3.12
2017-12-30T07:41:30.285Z,3.10
2017-12-30T07:43:57.981Z,3.10
2017-12-30T07:46:25.732Z,3.14
2017-12-30T07:48:53.408Z,3.15
2017-12-30T07:51:21.157Z,3.16
2017-12-30T07:53:48.847Z,3.18
2017-12-30T07:56:16.577Z,3.20
2017-12-30T07:58:44.259Z,3.20
2017-12-30T08:01:11.982Z,3.23
2017-12-30T08:03:39.671Z,3.27
2017-12-30T08:06:07.405Z,3.31
2017-12-30T08:08:35.125Z,3.34
2017-12-30T08:11:02.873Z,3.36
2017-12-30T08:13:30.557Z,3.39
2017-12-30T08:15:58.281Z,3.42
2017-12-30T08:18:25.962Z,3.45
2017-12-30T08:20:53.690Z,3.47
2017-12-30T08:23:21.354Z,3.48
2017-12-30T08:25:49.101Z,3.50
2017-12-30T08:28:16.790Z,3.52
2017-12-30T08:30:44.515Z,3.56
2017-12-30T08:33:12.201Z,3.61
2017-12-30T08:35:39.936Z,3.64
2017-12-30T08:38:07.623Z,3.68
2017-12-30T08:40:35.355Z,3.72
2017-12-30T08:43:03.034Z,3.78
2017-12-30T08:45:30.767Z,3.83
2017-12-30T08:47:58.468Z,3.89
2017-12-30T08:50:26.209Z,3.91
2017-12-30T08:52:53.899Z,3.94
2017-12-30T08:55:21.639Z,3.93
2017-12-30T08:57:49.444Z,3.93
2017-12-30T09:00:29.496Z,3.93
2017-12-30T09:02:57.168Z,3.93
2017-12-30T09:05:24.845Z,3.92
2017-12-30T09:07:52.477Z,3.92
2017-12-30T09:10:20.144Z,3.94
2017-12-30T09:12:47.757Z,3.95
2017-12-30T09:15:15.429Z,3.97
2017-12-30T09:17:43.040Z,3.97
2017-12-30T09:20:10.731Z,3.97
2017-12-30T09:22:38.342Z,3.99
2017-12-30T09:25:06.019Z,4.01
2017-12-30T09:27:33.747Z,4.04
2017-12-30T09:30:01.436Z,4.08
2017-12-30T09:32:29.185Z,4.09
2017-12-30T09:34:56.863Z,4.09
2017-12-30T09:37:24.537Z,4.11
2017-12-30T09:39:52.233Z,4.11
2017-12-30T09:42:19.900Z,4.14
2017-12-30T09:44:47.601Z,4.17
2017-12-30T09:47:15.266Z,4.21
2017-12-30T09:49:42.939Z,4.25
2017-12-30T09:52:10.596Z,4.29
2017-12-30T09:54:38.209Z,4.35
2017-12-30T09:57:05.879Z,4.36
2017-12-30T09:59:33.483Z,4.38
2017-12-30T10:02:01.163Z,4.38
2017-12-30T10:04:28.772Z,4.36
2017-12-30T10:06:56.432Z,4.36
2017-12-30T10:09:24.046Z,4.35
2017-12-30T10:11:51.737Z,4.34
2017-12-30T10:14:22.538Z,4.34
2017-12-30T10:16:50.729Z,4.34
2017-12-30T10:19:18.422Z,4.34
2017-12-30T10:21:46.116Z,4.37
2017-12-30T10:24:13.736Z,4.37
2017-12-30T10:26:41.418Z,4.38
2017-12-30T10:29:09.129Z,4.38
2017-12-30T10:31:36.803Z,4.43
2017-12-30T10:34:04.424Z,4.47
2017-12-30T10:36:32.163Z,4.50
2017-12-30T10:39:00.651Z,4.55
2017-12-30T10:41:28.371Z,4.58
2017-12-30T10:43:56.004Z,4.60
2017-12-30T10:46:23.679Z,4.63
2017-12-30T10:48:51.306Z,4.67
2017-12-30T10:51:19.028Z,4.64
2017-12-30T10:53:46.701Z,4.65
2017-12-30T10:56:14.371Z,4.63
2017-12-30T10:58:41.984Z,4.59
2017-12-30T11:01:09.740Z,4.54
2017-12-30T11:03:37.363Z,4.52
2017-12-30T11:06:05.067Z,4.51
2017-12-30T11:08:32.836Z,4.50
2017-12-30T11:11:00.548Z,4.53
2017-12-30T11:13:28.205Z,4.55
2017-12-30T11:15:55.879Z,4.58
2017-12-30T11:18:23.556Z,4.61
2017-12-30T11:20:51.185Z,4.63
2017-12-30T11:23:18.854Z,4.64
2017-12-30T11:25:46.476Z,4.63
2017-12-30T11:28:14.157Z,4.59
2017-12-30T11:30:41.763Z,4.53
2017-12-30T11:33:09.513Z,4.55
2017-12-30T11:35:37.126Z,4.56
2017-12-30T11:38:04.862Z,4.59
2017-12-30T11:40:32.484Z,4.62
2017-12-30T11:43:00.172Z,4.63
2017-12-30T11:45:27.795Z,4.65
2017-12-30T11:47:55.536Z,4.65
2017-12-30T11:50:23.160Z,4.67
2017-12-30T11:52:50.903Z,4.67
2017-12-30T11:55:18.589Z,4.68
2017-12-30T11:57:46.246Z,4.66
2017-12-30T12:00:13.846Z,4.64
2017-12-30T12:02:41.511Z,4.63
2017-12-30T12:05:09.124Z,4.60
2017-12-30T12:07:36.892Z,4.53
2017-12-30T12:10:04.544Z,4.48
2017-12-30T12:12:32.222Z,4.42
2017-12-30T12:14:59.844Z,4.37
2017-12-30T12:17:27.586Z,4.31
2017-12-30T12:19:55.218Z,4.23
2017-12-30T12:22:22.971Z,4.11
2017-12-30T12:24:50.590Z,4.07
2017-12-30T12:27:18.247Z,4.02
2017-12-30T12:29:45.864Z,3.99
2017-12-30T12:32:13.623Z,3.96
2017-12-30T12:34:41.531Z,3.93
2017-12-30T12:37:09.248Z,3.91
2017-12-30T12:39:36.863Z,3.88
2017-12-30T12:42:04.539Z,3.88
2017-12-30T12:44:32.208Z,3.89
2017-12-30T12:46:59.841Z,3.92
2017-12-30T12:49:37.571Z,3.89
2017-12-30T12:52:05.193Z,3.84
2017-12-30T12:54:32.860Z,3.78
2017-12-30T12:57:02.291Z,3.71
2017-12-30T12:59:30.008Z,3.67
2017-12-30T13:02:01.084Z,3.67
2017-12-30T13:04:31.058Z,3.67
2017-12-30T13:07:00.618Z,3.70
2017-12-30T13:09:28.549Z,3.72
2017-12-30T13:11:56.183Z,3.74
2017-12-30T13:14:23.861Z,3.77
2017-12-30T13:16:51.528Z,3.78
2017-12-30T13:19:19.205Z,3.79
2017-12-30T13:21:46.830Z,3.79
2017-12-30T13:24:14.566Z,3.81
2017-12-30T13:26:42.188Z,3.80
2017-12-30T13:29:09.961Z,3.78
2017-12-30T13:31:37.575Z,3.76
2017-12-30T13:34:05.268Z,3.72
2017-12-30T13:36:32.914Z,3.69
2017-12-30T13:39:00.584Z,3.66
2017-12-30T13:41:28.234Z,3.64
2017-12-30T13:43:55.974Z,3.63
2017-12-30T13:46:23.648Z,3.61
2017-12-30T13:48:51.343Z,3.60
2017-12-30T13:51:19.036Z,3.58
2017-12-30T13:53:46.772Z,3.56
2017-12-30T13:56:14.438Z,3.57
2017-12-30T13:58:42.105Z,3.56
2017-12-30T14:01:09.788Z,3.56
2017-12-30T14:03:37.515Z,3.55
2017-12-30T14:06:05.172Z,3.55
2017-12-30T14:08:32.840Z,3.55
2017-12-30T14:11:00.524Z,3.56
2017-12-30T14:13:28.260Z,3.57
2017-12-30T14:15:55.873Z,3.57
2017-12-30T14:18:23.611Z,3.58
2017-12-30T14:20:51.348Z,3.59
2017-12-30T14:23:19.028Z,3.58
2017-12-30T14:25:46.718Z,3.58
2017-12-30T14:28:14.393Z,3.59
2017-12-30T14:30:42.053Z,3.60
2017-12-30T14:33:09.731Z,3.58
2017-12-30T14:35:37.366Z,3.56
2017-12-30T14:38:09.299Z,3.57
2017-12-30T14:40:37.067Z,3.56
2017-12-30T14:43:04.683Z,3.57
2017-12-30T14:45:32.404Z,3.57
2017-12-30T14:48:00.102Z,3.55
2017-12-30T14:50:27.833Z,3.54
2017-12-30T14:52:55.492Z,3.52
2017-12-30T14:55:23.235Z,3.52
2017-12-30T14:57:50.982Z,3.50
2017-12-30T15:00:18.702Z,3.52
2017-12-30T15:02:46.312Z,3.50
2017-12-30T15:05:14.040Z,3.49
2017-12-30T15:07:41.790Z,3.47
2017-12-30T15:10:09.462Z,3.49
2017-12-30T15:12:37.091Z,3.49
2017-12-30T15:15:04.817Z,3.50
2017-12-30T15:17:32.526Z,3.51
2017-12-30T15:20:00.268Z,3.54
2017-12-30T15:22:27.975Z,3.55
2017-12-30T15:24:55.713Z,3.56
2017-12-30T15:27:23.460Z,3.55
2017-12-30T15:29:51.216Z,3.58
2017-12-30T15:32:19.083Z,3.61
2017-12-30T15:34:46.835Z,3.63
2017-12-30T15:37:14.533Z,3.65
2017-12-30T15:39:42.229Z,3.66
2017-12-30T15:42:09.936Z,3.68
2017-12-30T15:44:37.669Z,3.70
2017-12-30T15:47:05.348Z,3.73
2017-12-30T15:49:33.129Z,3.75
2017-12-30T15:52:00.823Z,3.79
2017-12-30T15:54:28.509Z,3.79
2017-12-30T15:56:56.226Z,3.81
2017-12-30T15:59:23.999Z,3.82
2017-12-30T16:01:51.667Z,3.85
2017-12-30T16:04:19.408Z,3.88
2017-12-30T16:06:47.131Z,3.90
2017-12-30T16:09:14.851Z,3.94
2017-12-30T16:11:42.562Z,3.94
2017-12-30T16:14:10.284Z,3.97
2017-12-30T16:16:37.955Z,4.00
2017-12-30T16:19:05.645Z,4.04
2017-12-30T16:21:33.371Z,4.10
2017-12-30T16:24:01.035Z,4.17
2017-12-30T16:26:28.764Z,4.21
2017-12-30T16:28:56.404Z,4.29
2017-12-30T16:31:24.164Z,4.36
2017-12-30T16:33:51.860Z,4.41
2017-12-30T16:36:19.603Z,4.45
2017-12-30T16:38:47.300Z,4.49
2017-12-30T16:41:15.064Z,4.53
2017-12-30T16:43:42.750Z,4.57
2017-12-30T16:46:10.507Z,4.60
2017-12-30T16:48:38.203Z,4.62
2017-12-30T16:51:05.983Z,4.67
2017-12-30T16:53:33.681Z,4.71
2017-12-30T16:56:01.475Z,4.74
2017-12-30T16:58:29.168Z,4.79
2017-12-30T17:00:56.910Z,4.85
2017-12-30T17:03:24.638Z,4.89
2017-12-30T17:05:52.367Z,4.94
2017-12-30T17:08:20.117Z,4.98
2017-12-30T17:10:47.849Z,5.04
2017-12-30T17:13:15.455Z,5.11
2017-12-30T17:15:43.272Z,5.16
2017-12-30T17:18:10.958Z,5.18
2017-12-30T17:20:38.700Z,5.23
2017-12-30T17:23:06.403Z,5.25
2017-12-30T17:25:34.139Z,5.29
2017-12-30T17:28:14.424Z,5.29
2017-12-30T17:30:51.383Z,5.33
2017-12-30T17:33:29.313Z,5.39
2017-12-30T17:35:58.529Z,5.45
2017-12-30T17:38:26.176Z,5.47
2017-12-30T17:40:53.921Z,5.55
2017-12-30T17:43:21.628Z,5.64
2017-12-30T17:45:49.429Z,5.74
2017-12-30T17:48:17.171Z,5.83
2017-12-30T17:50:44.902Z,5.93
2017-12-30T17:53:12.625Z,6.03
2017-12-30T17:55:40.364Z,6.14
2017-12-30T17:58:08.124Z,6.20
2017-12-30T18:00:35.902Z,6.27
2017-12-30T18:03:03.601Z,6.41
2017-12-30T18:05:31.357Z,6.47
2017-12-30T18:07:59.155Z,6.46
2017-12-30T18:10:26.869Z,6.48
2017-12-30T18:12:54.597Z,6.51
2017-12-30T18:15:22.361Z,6.48
2017-12-30T18:17:50.087Z,6.40
2017-12-30T18:20:17.838Z,6.34
2017-12-30T18:22:45.578Z,6.31
2017-12-30T18:25:13.246Z,6.36
2017-12-30T18:27:41.030Z,6.45
2017-12-30T18:30:08.753Z,6.46
2017-12-30T18:32:36.503Z,6.53
2017-12-30T18:35:04.239Z,6.63
2017-12-30T18:37:31.987Z,6.89
2017-12-30T18:39:59.719Z,7.17
2017-12-30T18:42:27.464Z,7.41
2017-12-30T18:44:55.204Z,7.68
2017-12-30T18:47:22.990Z,7.73
2017-12-30T18:49:50.754Z,7.83
2017-12-30T18:52:18.458Z,8.00
2017-12-30T18:54:46.168Z,8.15
2017-12-30T18:57:13.935Z,8.16
2017-12-30T18:59:41.621Z,8.20
2017-12-30T19:02:09.394Z,8.30
2017-12-30T19:04:37.067Z,8.27
2017-12-30T19:07:04.910Z,8.23
2017-12-30T19:09:32.660Z,8.17
2017-12-30T19:12:00.395Z,8.19
2017-12-30T19:14:28.104Z,8.16
2017-12-30T19:16:55.880Z,8.13
2017-12-30T19:19:23.612Z,8.14
2017-12-30T19:21:51.330Z,8.16
2017-12-30T19:24:19.050Z,8.10
2017-12-30T19:26:46.825Z,8.08
2017-12-30T19:29:14.530Z,8.06
2017-12-30T19:31:42.295Z,8.04
2017-12-30T19:34:10.019Z,8.04
2017-12-30T19:36:37.793Z,8.08
2017-12-30T19:39:05.573Z,8.17
2017-12-30T19:41:33.353Z,8.29
2017-12-30T19:44:01.091Z,8.43
2017-12-30T19:46:28.892Z,8.45
2017-12-30T19:48:56.746Z,8.45
2017-12-30T19:51:24.522Z,8.55
2017-12-30T19:53:52.259Z,8.52
2017-12-30T19:56:20.054Z,8.51
2017-12-30T19:58:47.788Z,8.58
2017-12-30T20:01:15.576Z,8.67
2017-12-30T20:03:43.298Z,8.56
2017-12-30T20:06:11.029Z,8.47
2017-12-30T20:08:38.853Z,8.49
2017-12-30T20:11:06.608Z,8.44
2017-12-30T20:13:34.387Z,8.57
2017-12-30T20:16:02.119Z,8.53
2017-12-30T20:18:29.883Z,8.67
2017-12-30T20:20:57.610Z,8.67
2017-12-30T20:23:25.386Z,8.77
2017-12-30T20:25:53.101Z,8.81
2017-12-30T20:28:20.890Z,8.72
2017-12-30T20:30:48.639Z,8.67
2017-12-30T20:33:16.427Z,8.61
2017-12-30T20:35:44.164Z,8.74
2017-12-30T20:38:11.964Z,8.70
2017-12-30T20:40:39.716Z,8.61
2017-12-30T20:43:07.500Z,8.59
2017-12-30T20:45:35.239Z,8.60
2017-12-30T20:48:03.037Z,8.52
2017-12-30T20:50:30.827Z,8.58
2017-12-30T20:52:58.626Z,8.59
2017-12-30T20:55:26.369Z,8.65
2017-12-30T20:57:54.136Z,8.66
2017-12-30T21:00:21.874Z,8.64
2017-12-30T21:02:49.677Z,8.65
2017-12-30T21:05:17.425Z,8.65
2017-12-30T21:07:45.245Z,8.55
2017-12-30T21:10:12.981Z,8.49
2017-12-30T21:12:40.817Z,8.47
2017-12-30T21:15:08.558Z,8.46
2017-12-30T21:17:36.330Z,8.40
2017-12-30T21:20:04.119Z,8.37
2017-12-30T21:22:31.886Z,8.42
2017-12-30T21:24:59.651Z,8.45
2017-12-30T21:27:27.429Z,8.42
2017-12-30T21:29:55.149Z,8.32
2017-12-30T21:32:22.923Z,8.30
2017-12-30T21:34:50.667Z,8.23
2017-12-30T21:37:18.461Z,8.33
2017-12-30T21:39:46.195Z,8.23
2017-12-30T21:42:13.987Z,8.17
2017-12-30T21:44:41.716Z,8.19
2017-12-30T21:47:09.485Z,8.10
2017-12-30T21:49:37.266Z,8.22
2017-12-30T21:52:05.019Z,8.15
2017-12-30T21:54:32.802Z,8.07
2017-12-30T21:57:00.531Z,8.19
2017-12-30T21:59:28.326Z,8.28
2017-12-30T22:01:56.085Z,8.26
2017-12-30T22:04:23.857Z,8.25
2017-12-30T22:06:51.538Z,8.22
2017-12-30T22:09:19.341Z,8.24
2017-12-30T22:11:47.059Z,8.23
2017-12-30T22:14:14.864Z,8.28
2017-12-30T22:16:42.615Z,8.32
2017-12-30T22:19:10.543Z,8.19
2017-12-30T22:21:38.276Z,8.18
2017-12-30T22:24:06.045Z,8.18
2017-12-30T22:26:33.770Z,8.22
2017-12-30T22:29:01.493Z,8.10
2017-12-30T22:31:29.231Z,8.11
2017-12-30T22:33:57.018Z,8.21
2017-12-30T22:36:24.753Z,8.13
2017-12-30T22:38:52.538Z,8.25
2017-12-30T22:41:20.251Z,8.17
2017-12-30T22:43:48.014Z,8.15
2017-12-30T22:46:15.741Z,8.14
2017-12-30T22:48:43.523Z,8.18
2017-12-30T22:51:11.300Z,8.19
2017-12-30T22:53:39.059Z,8.23
2017-12-30T22:56:06.793Z,8.24
2017-12-30T22:58:34.560Z,8.24
2017-12-30T23:01:08.208Z,8.21
2017-12-30T23:03:36.024Z,8.24
2017-12-30T23:06:03.740Z,8.20
2017-12-30T23:08:31.572Z,8.22
2017-12-30T23:10:59.317Z,8.18
2017-12-30T23:13:27.087Z,8.14
2017-12-30T23:15:54.818Z,8.17
2017-12-30T23:18:22.593Z,8.05
2017-12-30T23:20:50.320Z,8.01
2017-12-30T23:23:18.101Z,7.85
2017-12-30T23:25:46.396Z,7.80
2017-12-30T23:28:14.182Z,7.83
2017-12-30T23:30:41.907Z,7.80
2017-12-30T23:33:09.634Z,7.78
2017-12-30T23:35:37.412Z,7.72
2017-12-30T23:38:05.178Z,7.78
2017-12-30T23:40:32.949Z,7.73
2017-12-30T23:43:00.659Z,7.73
2017-12-30T23:45:28.436Z,7.57
2017-12-30T23:47:56.153Z,7.50
2017-12-30T23:50:23.930Z,7.50
2017-12-30T23:52:51.668Z,7.47
2017-12-30T23:55:19.447Z,7.48
2017-12-30T23:57:47.184Z,7.38
